Toyomasa Maru — JJ3927 — position and weather

sailwx.info

Track history (hours):
 
Tides and Currents Weather Stations Pressure Air Temp Water Temp Dewpoint Dewpoint Depression Visibility Wind Speed Wind Dir Waves Ship Positions

Toyomasa Maru

Last reported at 2017-Jul-12 16:40 UTC. Time now 2017-Jul-23 12:39 UTC.
Position N 34°36' E 134°54'.
Warning: this ship's position is 10 days out of date.

Length 101 m; draft 6.4 m.

Type: Tanker. MMSI: 431300401.

Date/timePositionNaut miles runAvg speedWind from/ knotsBaromVisibWave heightAir tempDewpointWater temp
2017-Jul-12 16:40N 34°36' E 134°54'213.3
2017-Jul-12 16:30N 34°37' E 134°57'611.7
2017-Jul-12 16:00N 34°36' E 135°04'611.4
2017-Jul-12 15:30N 34°35' E 135°10'611.7
2017-Jul-12 15:00N 34°34' E 135°17'6 0.4
2017-Jul-12 00:18N 34°32' E 135°25'0 0.7
2017-Jul-11 23:57N 34°32' E 135°24'2 5.2
2017-Jul-11 23:29N 34°33' E 135°22'4 8.3
2017-Jul-11 23:00N 34°31' E 135°18'510.4
2017-Jul-11 22:30N 34°28' E 135°12'612.4
2017-Jul-11 21:59N 34°24' E 135°07'612.0
2017-Jul-11 21:29N 34°20' E 135°01'510.8
2017-Jul-11 21:00N 34°15' E 135°00'5 9.9
2017-Jul-11 20:30N 34°10' E 135°00'712.7
2017-Jul-11 19:59N 34°03' E 135°01'230 7.3
2017-Jul-10 12:27N 34°59' E 139°32'511.9
2017-Jul-10 12:00N 35°03' E 139°37'611.9
2017-Jul-10 11:30N 35°07' E 139°42'611.3
2017-Jul-10 11:00N 35°11' E 139°46'611.5
2017-Jul-10 10:30N 35°17' E 139°45'611.4
2017-Jul-10 10:00N 35°22' E 139°42'611.3
2017-Jul-10 09:30N 35°27' E 139°46'3 6.5
2017-Jul-10 09:00N 35°30' E 139°45'0 0.4
2017-Jul-10 08:28N 35°30' E 139°45'0 0.0
2017-Jul-10 07:55N 35°30' E 139°45'0 0.0
2017-Jul-10 07:22N 35°30' E 139°45'0 0.0
2017-Jul-10 06:43N 35°30' E 139°45'0 0.0
2017-Jul-10 06:22N 35°30' E 139°45'0 0.0
2017-Jul-10 05:58N 35°30' E 139°45'0 0.0
2017-Jul-10 05:28N 35°30' E 139°45'0 0.0
2017-Jul-10 04:58N 35°30' E 139°45'0 0.1
2017-Jul-10 04:30N 35°30' E 139°45'3 5.5
2017-Jul-10 04:00N 35°29' E 139°42'510.0
2017-Jul-10 03:30N 35°25' E 139°45'1 1.7
2017-Jul-10 02:58N 35°24' E 139°45'0 0.0
2017-Jul-10 02:28N 35°24' E 139°45'0 0.0
2017-Jul-10 01:58N 35°24' E 139°45'0 0.1
2017-Jul-10 01:28N 35°24' E 139°45'3 6.7
2017-Jul-10 01:00N 35°21' E 139°44'611.7
2017-Jul-10 00:30N 35°16' E 139°47'612.8
2017-Jul-10 00:00N 35°09' E 139°46'713.5
2017-Jul-09 23:31N 35°04' E 139°42'713.5
2017-Jul-09 23:01N 34°59' E 139°36'  
Track history (hours):
 
Tides and Currents Weather Stations Pressure Air Temp Water Temp Dewpoint Dewpoint Depression Visibility Wind Speed Wind Dir Waves Ship Positions

Toyomasa Maru

Last reported at 2017-Jul-12 16:40 UTC. Time now 2017-Jul-23 12:39 UTC.
Position N 34°36' E 134°54'.
Warning: this ship's position is 10 days out of date.

Length 101 m; draft 6.4 m.

Type: Tanker. MMSI: 431300401.

Date/timePositionNaut miles runAvg speedWind from/ knotsBaromVisibWave heightAir tempDewpointWater temp
2017-Jul-12 16:40N 34°36' E 134°54'213.3
2017-Jul-12 16:30N 34°37' E 134°57'611.7
2017-Jul-12 16:00N 34°36' E 135°04'611.4
2017-Jul-12 15:30N 34°35' E 135°10'611.7
2017-Jul-12 15:00N 34°34' E 135°17'6 0.4
2017-Jul-12 00:18N 34°32' E 135°25'0 0.7
2017-Jul-11 23:57N 34°32' E 135°24'2 5.2
2017-Jul-11 23:29N 34°33' E 135°22'4 8.3
2017-Jul-11 23:00N 34°31' E 135°18'510.4
2017-Jul-11 22:30N 34°28' E 135°12'612.4
2017-Jul-11 21:59N 34°24' E 135°07'612.0
2017-Jul-11 21:29N 34°20' E 135°01'510.8
2017-Jul-11 21:00N 34°15' E 135°00'5 9.9
2017-Jul-11 20:30N 34°10' E 135°00'712.7
2017-Jul-11 19:59N 34°03' E 135°01'230 7.3
2017-Jul-10 12:27N 34°59' E 139°32'511.9
2017-Jul-10 12:00N 35°03' E 139°37'611.9
2017-Jul-10 11:30N 35°07' E 139°42'611.3
2017-Jul-10 11:00N 35°11' E 139°46'611.5
2017-Jul-10 10:30N 35°17' E 139°45'611.4
2017-Jul-10 10:00N 35°22' E 139°42'611.3
2017-Jul-10 09:30N 35°27' E 139°46'3 6.5
2017-Jul-10 09:00N 35°30' E 139°45'0 0.4
2017-Jul-10 08:28N 35°30' E 139°45'0 0.0
2017-Jul-10 07:55N 35°30' E 139°45'0 0.0
2017-Jul-10 07:22N 35°30' E 139°45'0 0.0
2017-Jul-10 06:43N 35°30' E 139°45'0 0.0
2017-Jul-10 06:22N 35°30' E 139°45'0 0.0
2017-Jul-10 05:58N 35°30' E 139°45'0 0.0
2017-Jul-10 05:28N 35°30' E 139°45'0 0.0
2017-Jul-10 04:58N 35°30' E 139°45'0 0.1
2017-Jul-10 04:30N 35°30' E 139°45'3 5.5
2017-Jul-10 04:00N 35°29' E 139°42'510.0
2017-Jul-10 03:30N 35°25' E 139°45'1 1.7
2017-Jul-10 02:58N 35°24' E 139°45'0 0.0
2017-Jul-10 02:28N 35°24' E 139°45'0 0.0
2017-Jul-10 01:58N 35°24' E 139°45'0 0.1
2017-Jul-10 01:28N 35°24' E 139°45'3 6.7
2017-Jul-10 01:00N 35°21' E 139°44'611.7
2017-Jul-10 00:30N 35°16' E 139°47'612.8
2017-Jul-10 00:00N 35°09' E 139°46'713.5
2017-Jul-09 23:31N 35°04' E 139°42'713.5
2017-Jul-09 23:01N 34°59' E 139°36'  

Dump ship's entire track history